Time;durP1;ratioP1;P1;durP2;ratioP2;P2;SDS_P1;SDS_P2;PMS_P1;PMS_P2;Temp;Humidity;BMP_temperature;BMP_pressure;BME280_temperature;BME280_humidity;BME280_pressure;Samples;Min_cycle;Max_cycle;Signal;HPM_P1;HPM_P2
2021/10/18 00:00:36;;;;;;;19.80;11.70;;;;;;;10.02;68.21;100964.89;116472;1195;21919;-75
2021/10/18 00:03:05;;;;;;;18.10;11.90;;;;;;;10.00;68.47;100968.92;116453;1193;21909;-75
2021/10/18 00:05:34;;;;;;;16.60;11.50;;;;;;;9.98;68.50;100969.30;116378;1191;21979;-75
2021/10/18 00:08:06;;;;;;;16.30;11.20;;;;;;;9.97;68.79;100968.59;116609;1189;23554;-74
2021/10/18 00:10:36;;;;;;;13.80;10.80;;;;;;;9.95;69.00;100970.69;117043;1189;23755;-73
2021/10/18 00:13:26;;;;;;;20.30;13.50;;;;;;;9.93;69.09;100974.25;116894;1188;23437;-75
2021/10/18 00:15:55;;;;;;;16.20;11.10;;;;;;;9.92;69.40;100972.06;116761;1183;21903;-75
2021/10/18 00:18:24;;;;;;;17.90;12.30;;;;;;;9.92;69.57;100972.20;116694;1190;21895;-75
2021/10/18 00:20:55;;;;;;;14.50;11.20;;;;;;;9.91;69.84;100972.79;116418;1195;22928;-75
2021/10/18 00:23:24;;;;;;;17.50;12.30;;;;;;;9.91;69.92;100976.20;116444;1195;21889;-75
2021/10/18 00:25:54;;;;;;;19.70;12.60;;;;;;;9.91;70.14;100976.17;116302;1191;21900;-75
2021/10/18 00:28:23;;;;;;;19.10;12.50;;;;;;;9.92;70.37;100977.52;116202;1197;22666;-76
2021/10/18 00:30:52;;;;;;;17.90;11.40;;;;;;;9.92;70.48;100973.06;115930;1196;22746;-75
2021/10/18 00:33:22;;;;;;;16.10;11.30;;;;;;;9.91;70.52;100977.21;115946;1196;23597;-75
2021/10/18 00:35:52;;;;;;;18.80;11.80;;;;;;;9.90;70.68;100974.27;116193;1193;23614;-75
2021/10/18 00:38:21;;;;;;;14.70;10.20;;;;;;;9.91;70.84;100975.29;116182;1196;21982;-75
2021/10/18 00:40:51;;;;;;;15.70;11.20;;;;;;;9.90;70.84;100971.32;116178;1197;23552;-75
2021/10/18 00:43:20;;;;;;;19.90;11.70;;;;;;;9.89;71.05;100971.08;116321;1196;21902;-75
2021/10/18 00:45:50;;;;;;;17.30;11.60;;;;;;;9.88;71.20;100971.84;116248;1194;23640;-75
2021/10/18 00:48:19;;;;;;;18.80;11.70;;;;;;;9.87;71.37;100972.64;116458;1192;23441;-76
2021/10/18 00:50:55;;;;;;;17.20;12.20;;;;;;;9.87;71.65;100970.88;116732;1192;21917;-75
2021/10/18 00:53:26;;;;;;;17.90;11.70;;;;;;;9.86;71.63;100973.06;116743;1192;21908;-75
2021/10/18 00:55:56;;;;;;;16.40;11.90;;;;;;;9.85;71.69;100973.55;116717;1190;21945;-75
2021/10/18 00:58:28;;;;;;;34.60;12.40;;;;;;;9.84;71.79;100972.23;116747;1189;21893;-75
2021/10/18 01:00:58;;;;;;;;;;;;;;;9.84;71.95;100972.10;116979;1189;21990;-75
2021/10/18 01:03:27;;;;;;;14.10;11.60;;;;;;;9.76;72.19;100971.82;117091;1189;21887;-74
2021/10/18 01:05:57;;;;;;;16.10;11.50;;;;;;;9.74;72.40;100973.38;117039;1189;22959;-74
2021/10/18 01:08:26;;;;;;;17.90;12.60;;;;;;;9.77;72.52;100975.77;117012;1188;21887;-74
2021/10/18 01:10:55;;;;;;;17.90;11.40;;;;;;;9.79;72.48;100973.83;116979;1189;21938;-77
2021/10/18 01:13:25;;;;;;;13.80;10.60;;;;;;;9.80;72.62;100971.94;116876;1189;21879;-75
2021/10/18 01:15:55;;;;;;;17.10;12.00;;;;;;;9.82;72.61;100971.63;117112;1189;23415;-74
2021/10/18 01:18:24;;;;;;;15.60;12.80;;;;;;;9.82;72.68;100975.81;116733;1191;21917;-74
2021/10/18 01:20:53;;;;;;;14.00;10.80;;;;;;;9.82;72.87;100972.75;116747;1190;21892;-74
2021/10/18 01:23:22;;;;;;;16.30;11.70;;;;;;;9.82;72.83;100970.90;116708;1191;21895;-74
2021/10/18 01:25:52;;;;;;;17.70;11.60;;;;;;;9.82;72.93;100972.31;116752;1191;21904;-75
2021/10/18 01:28:21;;;;;;;15.50;12.00;;;;;;;9.81;73.14;100975.55;116736;1191;22289;-75
2021/10/18 01:30:51;;;;;;;17.70;13.00;;;;;;;9.80;73.07;100978.27;116727;1191;21973;-73
2021/10/18 01:33:20;;;;;;;22.60;13.50;;;;;;;9.80;73.17;100981.29;116733;1192;22047;-75
2021/10/18 01:35:50;;;;;;;16.50;12.60;;;;;;;9.79;73.37;100977.63;116763;1189;21909;-75
2021/10/18 01:38:19;;;;;;;16.90;13.00;;;;;;;9.80;73.40;100980.60;116827;1189;23518;-74
2021/10/18 01:40:49;;;;;;;17.00;12.50;;;;;;;9.79;73.37;100981.69;116920;1177;21929;-74
2021/10/18 01:43:18;;;;;;;19.20;13.30;;;;;;;9.79;73.68;100983.40;116826;1187;21930;-75
2021/10/18 01:45:48;;;;;;;18.80;12.90;;;;;;;9.81;73.85;100982.20;116794;1191;21903;-75
2021/10/18 01:48:17;;;;;;;15.90;13.40;;;;;;;9.82;73.92;100981.89;116724;1191;21881;-74
2021/10/18 01:50:46;;;;;;;20.40;14.40;;;;;;;9.82;73.88;100985.58;116762;1192;22098;-74
2021/10/18 01:53:15;;;;;;;16.10;13.20;;;;;;;9.82;74.02;100982.85;116725;1191;21901;-74
2021/10/18 01:55:45;;;;;;;15.60;13.50;;;;;;;9.82;74.00;100984.96;116398;1193;21919;-75
2021/10/18 01:58:14;;;;;;;17.70;13.50;;;;;;;9.82;74.04;100983.73;116236;1195;22937;-74
2021/10/18 02:00:43;;;;;;;17.70;14.50;;;;;;;9.81;74.04;100984.38;116440;1195;23154;-74
2021/10/18 02:03:13;;;;;;;15.20;13.50;;;;;;;9.80;74.09;100985.68;116322;1184;22904;-74
2021/10/18 02:05:42;;;;;;;15.10;13.30;;;;;;;9.80;74.21;100979.68;116408;1191;21901;-75
2021/10/18 02:08:11;;;;;;;17.20;14.10;;;;;;;9.81;74.45;100979.43;116676;1190;22418;-75
2021/10/18 02:10:40;;;;;;;18.70;15.00;;;;;;;9.82;74.42;100980.02;116445;1193;21920;-75
2021/10/18 02:13:09;;;;;;;17.50;13.90;;;;;;;9.82;74.52;100977.04;116510;1190;22207;-74
2021/10/18 02:15:38;;;;;;;19.30;14.00;;;;;;;9.82;74.57;100980.51;116733;1191;21896;-74
2021/10/18 02:18:07;;;;;;;21.20;15.10;;;;;;;9.82;74.69;100979.09;116721;1192;21933;-74
2021/10/18 02:20:36;;;;;;;20.40;14.90;;;;;;;9.83;74.74;100979.95;116723;1189;22992;-74
2021/10/18 02:23:05;;;;;;;17.10;15.30;;;;;;;9.82;74.73;100981.95;116790;1187;24340;-74
2021/10/18 02:25:34;;;;;;;20.30;16.30;;;;;;;9.81;74.74;100982.20;116718;1191;21927;-74
2021/10/18 02:28:04;;;;;;;19.60;15.60;;;;;;;9.81;74.82;100984.35;116722;1191;22379;-74
2021/10/18 02:30:33;;;;;;;19.40;16.70;;;;;;;9.81;74.98;100983.98;116730;1191;21890;-75
2021/10/18 02:33:02;;;;;;;24.30;18.50;;;;;;;9.81;75.08;100981.15;116758;1191;23494;-75
2021/10/18 02:35:32;;;;;;;19.80;17.60;;;;;;;9.81;75.11;100979.27;116526;1193;21898;-75
2021/10/18 02:38:02;;;;;;;23.80;21.30;;;;;;;9.80;75.14;100980.17;116387;1193;21932;-76
2021/10/18 02:40:31;;;;;;;24.90;22.30;;;;;;;9.80;75.16;100981.39;116459;1193;24143;-74
2021/10/18 02:43:01;;;;;;;22.30;19.40;;;;;;;9.80;75.37;100981.23;116455;1193;21875;-74
2021/10/18 02:45:30;;;;;;;22.50;18.60;;;;;;;9.80;75.41;100982.63;116482;1193;21898;-74
2021/10/18 02:48:00;;;;;;;19.10;17.20;;;;;;;9.81;75.52;100986.42;116291;1190;23563;-74
2021/10/18 02:50:30;;;;;;;21.20;17.10;;;;;;;9.81;75.58;100988.52;116241;1192;22670;-75
2021/10/18 02:52:59;;;;;;;21.80;18.10;;;;;;;9.82;75.55;100989.50;116226;1196;24837;-75
2021/10/18 02:55:29;;;;;;;18.30;16.20;;;;;;;9.81;75.66;100990.29;116181;1185;22933;-75
2021/10/18 02:57:58;;;;;;;20.80;18.10;;;;;;;9.83;75.82;100991.70;116172;1196;23639;-75
2021/10/18 03:00:27;;;;;;;20.70;18.50;;;;;;;9.85;75.88;100993.47;116235;1196;22765;-75
2021/10/18 03:02:56;;;;;;;22.30;18.20;;;;;;;9.85;75.79;100994.67;116267;1196;22926;-75
2021/10/18 03:05:28;;;;;;;22.10;19.90;;;;;;;9.86;75.92;100997.77;116312;1193;24257;-74
2021/10/18 03:07:58;;;;;;;22.50;19.00;;;;;;;9.86;75.90;100998.66;116496;1193;21905;-75
2021/10/18 03:10:29;;;;;;;20.90;18.60;;;;;;;9.86;75.96;100998.83;116441;1192;21899;-75
2021/10/18 03:12:59;;;;;;;20.90;18.70;;;;;;;9.87;76.01;101002.89;116450;1192;22951;-75
2021/10/18 03:15:28;;;;;;;23.00;18.70;;;;;;;9.88;76.06;101002.97;116685;1191;21906;-75
2021/10/18 03:17:57;;;;;;;22.20;18.10;;;;;;;9.90;76.20;101001.63;116757;1189;22026;-75
2021/10/18 03:20:26;;;;;;;20.50;18.40;;;;;;;9.91;76.32;101001.64;116980;1189;22651;-74
2021/10/18 03:22:56;;;;;;;21.80;19.50;;;;;;;9.92;76.24;101002.42;116846;1189;21906;-75
2021/10/18 03:25:26;;;;;;;26.50;20.80;;;;;;;9.93;76.25;101007.64;116972;1186;22822;-75
2021/10/18 03:27:55;;;;;;;21.60;18.80;;;;;;;9.93;76.22;101009.09;116955;1189;23556;-73
2021/10/18 03:30:25;;;;;;;22.60;20.10;;;;;;;9.94;76.33;101011.58;117027;1185;21893;-74
2021/10/18 03:32:54;;;;;;;26.60;19.80;;;;;;;9.95;76.37;101014.17;116579;1192;21919;-74
2021/10/18 03:35:24;;;;;;;22.50;20.10;;;;;;;9.95;76.46;101015.16;116725;1189;23493;-74
2021/10/18 03:37:53;;;;;;;21.30;19.10;;;;;;;9.97;76.62;101016.92;116706;1192;21889;-74
2021/10/18 03:40:24;;;;;;;23.50;20.90;;;;;;;9.99;76.57;101021.70;116562;1192;21906;-73
2021/10/18 03:42:53;;;;;;;21.00;18.60;;;;;;;10.01;76.69;101020.94;116733;1192;21893;-75
2021/10/18 03:45:22;;;;;;;22.40;19.40;;;;;;;10.03;76.70;101023.44;116452;1190;21910;-74
2021/10/18 03:47:52;;;;;;;22.70;20.50;;;;;;;10.03;76.63;101024.45;116473;1193;21946;-75
2021/10/18 03:50:21;;;;;;;22.70;20.40;;;;;;;10.04;76.74;101027.20;116250;1193;23475;-74
2021/10/18 03:52:50;;;;;;;22.70;20.40;;;;;;;10.05;76.74;101026.19;116445;1194;21897;-74
2021/10/18 03:55:19;;;;;;;27.00;21.10;;;;;;;10.06;76.74;101027.52;116441;1192;21911;-75
2021/10/18 03:57:48;;;;;;;22.30;20.10;;;;;;;10.06;76.76;101031.02;116309;1195;23563;-75
2021/10/18 04:00:17;;;;;;;23.00;20.60;;;;;;;10.07;76.87;101036.09;116326;1193;22089;-74
2021/10/18 04:02:47;;;;;;;24.30;21.80;;;;;;;10.08;76.86;101037.32;116268;1193;21917;-75
2021/10/18 04:05:20;;;;;;;26.30;23.40;;;;;;;10.09;76.81;101037.63;116348;1195;23566;-75
2021/10/18 04:07:49;;;;;;;26.60;22.00;;;;;;;10.10;76.95;101039.94;116503;1191;21908;-75
2021/10/18 04:10:18;;;;;;;26.90;23.10;;;;;;;10.11;76.94;101041.30;116812;1189;22927;-75
2021/10/18 04:12:47;;;;;;;27.80;23.50;;;;;;;10.11;76.88;101043.25;117055;1189;22897;-74
2021/10/18 04:15:17;;;;;;;26.60;23.00;;;;;;;10.11;76.93;101041.04;116845;1189;22897;-74
2021/10/18 04:17:46;;;;;;;27.90;23.10;;;;;;;10.13;77.04;101045.79;117070;1188;21901;-75
2021/10/18 04:20:16;;;;;;;24.90;22.20;;;;;;;10.16;77.11;101052.25;116750;1190;21929;-75
2021/10/18 04:22:47;;;;;;;25.70;23.00;;;;;;;10.18;77.12;101052.77;116750;1192;21900;-75
2021/10/18 04:25:16;;;;;;;26.30;22.80;;;;;;;10.18;77.09;101049.38;116736;1192;21883;-74
2021/10/18 04:27:45;;;;;;;29.70;24.00;;;;;;;10.18;77.11;101050.27;116474;1195;23652;-74
2021/10/18 04:30:15;;;;;;;27.60;24.20;;;;;;;10.19;77.03;101050.73;116492;1193;22917;-74
2021/10/18 04:32:44;;;;;;;32.40;25.20;;;;;;;10.18;76.93;101056.07;116187;1196;21860;-75
2021/10/18 04:35:16;;;;;;;31.40;25.00;;;;;;;10.17;76.93;101053.05;116219;1196;22926;-73
2021/10/18 04:37:51;;;;;;;32.70;28.20;;;;;;;10.17;77.03;101052.69;116084;1196;22275;-73
2021/10/18 04:40:20;;;;;;;31.80;25.20;;;;;;;10.17;77.04;101046.52;116218;1196;21899;-74
2021/10/18 04:42:49;;;;;;;34.10;26.60;;;;;;;10.17;77.07;101044.77;116222;1196;21919;-73
2021/10/18 04:45:18;;;;;;;32.00;26.70;;;;;;;10.16;77.06;101048.36;116233;1195;23566;-73
2021/10/18 04:47:50;;;;;;;34.80;30.20;;;;;;;10.17;77.26;101050.22;116500;1193;21938;-75
2021/10/18 04:50:21;;;;;;;33.90;27.30;;;;;;;10.19;77.31;101049.12;116434;1193;21878;-73
2021/10/18 04:52:51;;;;;;;30.20;27.10;;;;;;;10.19;77.16;101061.15;116572;1192;22910;-74
2021/10/18 04:55:20;;;;;;;40.00;28.90;;;;;;;10.18;77.25;101069.47;116538;1189;21926;-74
2021/10/18 04:58:04;;;;;;;39.10;28.90;;;;;;;10.20;77.29;101076.69;117078;1188;22907;-74
2021/10/18 05:00:40;;;;;;;38.00;28.60;;;;;;;10.19;77.29;101074.63;116894;1188;21889;-74
2021/10/18 05:03:09;;;;;;;36.80;28.10;;;;;;;10.20;77.33;101082.49;117044;1188;21907;-74
2021/10/18 05:05:41;;;;;;;38.30;27.50;;;;;;;10.23;77.43;101089.45;116834;1189;22915;-73
2021/10/18 05:08:13;;;;;;;35.60;28.20;;;;;;;10.24;77.40;101093.40;116611;1186;22913;-72
2021/10/18 05:10:43;;;;;;;30.80;26.90;;;;;;;10.25;77.41;101092.77;116331;1193;21935;-73
2021/10/18 05:13:15;;;;;;;33.60;27.60;;;;;;;10.25;77.35;101094.16;116345;1195;21902;-73
2021/10/18 05:15:46;;;;;;;33.00;27.50;;;;;;;10.24;77.27;101096.52;116223;1193;21912;-73
2021/10/18 05:18:15;;;;;;;34.60;28.30;;;;;;;10.23;77.23;101104.21;116208;1192;21909;-74
2021/10/18 05:20:51;;;;;;;31.30;26.50;;;;;;;10.22;77.28;101104.11;116224;1193;23542;-74
2021/10/18 05:23:20;;;;;;;32.90;27.10;;;;;;;10.21;77.31;101108.09;116232;1195;21868;-74
2021/10/18 05:25:50;;;;;;;32.90;28.30;;;;;;;10.21;77.38;101107.92;116300;1195;23725;-75
2021/10/18 05:28:19;;;;;;;34.10;28.70;;;;;;;10.21;77.36;101113.34;116256;1193;23409;-75
2021/10/18 05:30:48;;;;;;;35.90;27.80;;;;;;;10.22;77.34;101117.80;116460;1193;23592;-75
2021/10/18 05:33:17;;;;;;;37.90;29.30;;;;;;;10.24;77.35;101117.50;116346;1184;21894;-75
2021/10/18 05:35:47;;;;;;;37.90;30.60;;;;;;;10.26;77.31;101126.07;116611;1189;22338;-74
2021/10/18 05:38:21;;;;;;;35.90;29.30;;;;;;;10.25;77.23;101128.49;116661;1187;21900;-74
2021/10/18 05:40:52;;;;;;;38.70;31.20;;;;;;;10.27;77.28;101130.09;116749;1192;21898;-75
2021/10/18 05:43:21;;;;;;;35.20;29.20;;;;;;;10.29;77.46;101127.72;116566;1193;21888;-75
2021/10/18 05:45:51;;;;;;;37.90;31.60;;;;;;;10.32;77.46;101130.48;116637;1190;21898;-74
2021/10/18 05:48:20;;;;;;;35.20;30.80;;;;;;;10.33;77.37;101131.21;116760;1192;24003;-75
2021/10/18 05:50:49;;;;;;;36.80;30.40;;;;;;;10.34;77.29;101135.18;116628;1189;22030;-74
2021/10/18 05:53:18;;;;;;;39.90;31.70;;;;;;;10.35;77.27;101138.97;116693;1192;21880;-75
2021/10/18 05:55:51;;;;;;;37.70;31.50;;;;;;;10.36;77.36;101142.20;116772;1191;22032;-74
2021/10/18 05:58:20;;;;;;;38.00;32.90;;;;;;;10.38;77.37;101142.39;116747;1191;21966;-74
2021/10/18 06:00:51;;;;;;;38.10;31.10;;;;;;;10.40;77.19;101139.55;116835;1187;21881;-74
2021/10/18 06:03:20;;;;;;;34.20;29.50;;;;;;;10.42;77.21;101147.52;116751;1190;22602;-75
2021/10/18 06:05:52;;;;;;;31.80;28.40;;;;;;;10.44;77.20;101149.81;116772;1187;23960;-74
2021/10/18 06:08:42;;;;;;;38.20;29.90;;;;;;;10.45;77.08;101156.56;116818;1191;21875;-74
2021/10/18 06:11:11;;;;;;;36.80;29.90;;;;;;;10.45;77.12;101153.39;116820;1188;23461;-74
2021/10/18 06:13:40;;;;;;;41.60;31.90;;;;;;;10.46;77.04;101156.27;116830;1188;23315;-74
2021/10/18 06:16:09;;;;;;;34.60;30.90;;;;;;;10.46;76.93;101159.55;116956;1189;22920;-73
2021/10/18 06:18:38;;;;;;;34.60;29.70;;;;;;;10.47;76.87;101158.67;116976;1189;21947;-74
2021/10/18 06:21:07;;;;;;;32.50;29.10;;;;;;;10.48;76.84;101167.04;116946;1189;22059;-76
2021/10/18 06:23:36;;;;;;;33.10;29.50;;;;;;;10.48;76.89;101168.06;117028;1185;21894;-76
2021/10/18 06:26:05;;;;;;;32.10;28.50;;;;;;;10.48;76.94;101163.27;117066;1185;23471;-76
2021/10/18 06:28:34;;;;;;;32.90;28.10;;;;;;;10.50;77.06;101160.66;117079;1189;22118;-76
2021/10/18 06:31:04;;;;;;;33.80;28.30;;;;;;;10.51;76.88;101164.27;117053;1185;23537;-76
2021/10/18 06:33:34;;;;;;;32.90;29.40;;;;;;;10.52;76.79;101169.59;117067;1189;23473;-76
2021/10/18 06:36:05;;;;;;;34.60;29.20;;;;;;;10.54;76.84;101174.14;117020;1187;21933;-76
2021/10/18 06:38:34;;;;;;;29.90;26.60;;;;;;;10.57;76.98;101180.75;116763;1191;23641;-76
2021/10/18 06:41:03;;;;;;;31.40;28.20;;;;;;;10.58;76.79;101183.60;116789;1191;22900;-76
2021/10/18 06:43:32;;;;;;;32.70;29.50;;;;;;;10.59;76.72;101185.96;116528;1190;21904;-80
2021/10/18 06:46:01;;;;;;;30.40;27.70;;;;;;;10.62;76.56;101190.18;116563;1190;22073;-78
2021/10/18 06:48:32;;;;;;;28.20;25.40;;;;;;;10.63;76.55;101196.04;116818;1191;21899;-77
2021/10/18 06:51:02;;;;;;;27.80;25.10;;;;;;;10.65;76.66;101202.14;116815;1191;22050;-77
2021/10/18 06:53:34;;;;;;;28.50;25.70;;;;;;;10.65;76.48;101207.63;116789;1191;22640;-77
2021/10/18 06:56:05;;;;;;;27.20;24.40;;;;;;;10.66;76.50;101207.87;116852;1189;21889;-77
2021/10/18 06:58:34;;;;;;;27.30;24.70;;;;;;;10.66;76.41;101207.54;117099;1181;23520;-76
2021/10/18 07:01:07;;;;;;;28.60;25.60;;;;;;;10.67;76.43;101211.13;117162;1188;21878;-76
2021/10/18 07:03:36;;;;;;;28.50;25.90;;;;;;;10.69;76.39;101215.02;116891;1176;23008;-76
2021/10/18 07:06:06;;;;;;;26.20;23.60;;;;;;;10.70;76.20;101217.52;117124;1189;22894;-74
2021/10/18 07:08:35;;;;;;;29.10;26.20;;;;;;;10.71;76.21;101217.61;117419;1188;21887;-76
2021/10/18 07:11:06;;;;;;;31.40;26.90;;;;;;;10.73;76.18;101219.36;116712;1191;24136;-78
2021/10/18 07:13:36;;;;;;;28.30;25.50;;;;;;;10.75;76.23;101225.85;116847;1187;21878;-76
2021/10/18 07:16:07;;;;;;;29.70;27.00;;;;;;;10.75;76.12;101232.89;116804;1187;21977;-76
2021/10/18 07:18:43;;;;;;;31.30;28.00;;;;;;;10.74;75.97;101235.84;116591;1193;21909;-76
2021/10/18 07:21:13;;;;;;;29.70;26.80;;;;;;;10.73;75.98;101239.83;116614;1193;21909;-77
2021/10/18 07:23:45;;;;;;;38.30;33.90;;;;;;;10.72;75.93;101238.64;116718;1193;22942;-76
2021/10/18 07:26:15;;;;;;;;;;;;;;;10.73;76.10;101239.30;116629;1193;23428;-75
2021/10/18 07:28:52;;;;;;;36.60;31.70;;;;;;;10.66;76.26;101243.67;116887;1190;21893;-77
2021/10/18 07:31:22;;;;;;;39.20;32.20;;;;;;;10.65;76.21;101246.34;116629;1194;21973;-76
2021/10/18 07:33:54;;;;;;;34.70;31.00;;;;;;;10.67;76.19;101249.39;116606;1194;23471;-77
2021/10/18 07:36:25;;;;;;;36.00;32.10;;;;;;;10.68;76.26;101247.70;116576;1192;22056;-76
2021/10/18 07:39:11;;;;;;;33.70;30.30;;;;;;;10.69;76.18;101246.71;116828;1192;23556;-76
2021/10/18 07:41:41;;;;;;;35.40;31.80;;;;;;;10.70;76.30;101249.73;116593;1191;21887;-77
2021/10/18 07:44:11;;;;;;;35.80;32.00;;;;;;;10.72;76.30;101247.24;116632;1192;21955;-77
2021/10/18 07:46:41;;;;;;;35.90;32.10;;;;;;;10.74;76.36;101250.45;116820;1190;22117;-77
2021/10/18 07:49:10;;;;;;;36.60;32.90;;;;;;;10.74;76.22;101249.17;116752;1176;23080;-77
2021/10/18 07:51:42;;;;;;;37.30;33.40;;;;;;;10.74;76.21;101252.39;116828;1187;23518;-76
2021/10/18 07:54:12;;;;;;;34.80;31.20;;;;;;;10.74;76.25;101250.61;116842;1191;21984;-77
2021/10/18 07:56:42;;;;;;;35.20;31.60;;;;;;;10.74;76.29;101251.50;116837;1191;21898;-74
2021/10/18 07:59:11;;;;;;;36.80;33.30;;;;;;;10.75;76.27;101254.63;116854;1179;21899;-80
2021/10/18 08:01:40;;;;;;;34.90;31.20;;;;;;;10.76;76.42;101259.20;116647;1191;22248;-76
2021/10/18 08:04:09;;;;;;;34.50;30.90;;;;;;;10.78;76.35;101258.29;116859;1183;22854;-76
2021/10/18 08:06:39;;;;;;;32.80;29.50;;;;;;;10.78;76.40;101253.18;116857;1189;21894;-77
2021/10/18 08:09:09;;;;;;;33.60;30.20;;;;;;;10.78;76.23;101257.80;116863;1189;24198;-76
2021/10/18 08:11:38;;;;;;;32.40;29.10;;;;;;;10.78;76.22;101266.45;117012;1189;21955;-76
2021/10/18 08:14:08;;;;;;;31.30;28.20;;;;;;;10.78;76.11;101266.81;117022;1189;23458;-76
2021/10/18 08:16:38;;;;;;;31.50;28.30;;;;;;;10.77;76.22;101264.76;117038;1186;21892;-76
2021/10/18 08:19:07;;;;;;;33.60;30.40;;;;;;;10.78;76.30;101268.87;116909;1181;21905;-78
2021/10/18 08:21:37;;;;;;;32.50;29.30;;;;;;;10.79;76.30;101272.16;116994;1189;22909;-77
2021/10/18 08:24:07;;;;;;;35.70;32.10;;;;;;;10.77;76.09;101272.89;117039;1185;21903;-77
2021/10/18 08:26:36;;;;;;;31.10;27.90;;;;;;;10.76;76.18;101274.58;116516;1192;22832;-77
2021/10/18 08:29:10;;;;;;;33.00;29.70;;;;;;;10.76;76.21;101281.98;116663;1192;23578;-77
2021/10/18 08:31:40;;;;;;;34.00;30.60;;;;;;;10.76;76.32;101282.52;116943;1192;21886;-77
2021/10/18 08:34:13;;;;;;;31.30;28.00;;;;;;;10.77;76.50;101282.06;116525;1190;21950;-77
2021/10/18 08:36:43;;;;;;;30.30;27.50;;;;;;;10.78;76.53;101276.49;116742;1190;21923;-77
2021/10/18 08:41:50;;;;;;;31.40;28.30;;;;;;;10.81;76.56;101277.59;116271;1195;23581;-77
2021/10/18 08:44:19;;;;;;;32.80;29.60;;;;;;;10.83;76.52;101282.90;116266;1195;21971;-76
2021/10/18 08:46:52;;;;;;;33.60;30.10;;;;;;;10.83;76.36;101280.23;116165;1198;21907;-76
2021/10/18 08:49:22;;;;;;;31.20;27.90;;;;;;;10.85;76.34;101282.02;115980;1194;21907;-77
2021/10/18 08:51:52;;;;;;;31.40;27.60;;;;;;;10.86;76.38;101286.84;115936;1196;24631;-79
2021/10/18 08:54:22;;;;;;;29.00;26.10;;;;;;;10.88;76.48;101285.63;116011;1198;21915;-77
2021/10/18 08:57:04;;;;;;;32.60;26.20;;;;;;;10.89;76.39;101290.25;115882;1195;21896;-80
2021/10/18 08:59:38;;;;;;;30.60;27.40;;;;;;;10.92;76.43;101291.03;116252;1195;23577;-79
2021/10/18 09:03:04;;;;;;;31.60;24.10;;;;;;;10.95;76.47;101289.52;116502;1193;21889;-79
2021/10/18 09:05:35;;;;;;;29.00;25.40;;;;;;;10.99;76.67;101290.30;116517;1193;22864;-79
2021/10/18 09:08:40;;;;;;;32.50;28.90;;;;;;;11.02;76.41;101298.46;116461;1193;22063;-78
2021/10/18 09:11:20;;;;;;;31.80;28.60;;;;;;;11.02;76.23;101303.09;116311;1195;21990;-79
2021/10/18 09:14:03;;;;;;;30.50;27.30;;;;;;;11.02;76.22;101304.90;116642;1195;23701;-79
2021/10/18 09:16:44;;;;;;;50.00;28.70;;;;;;;11.02;76.32;101304.85;116535;1193;23001;-80
2021/10/18 09:19:30;;;;;;;34.30;27.40;;;;;;;11.04;76.32;101302.49;116568;1196;22944;-80
2021/10/18 09:22:11;;;;;;;34.10;29.00;;;;;;;11.08;76.37;101299.66;116576;1192;22669;-79
2021/10/18 09:24:52;;;;;;;35.60;31.90;;;;;;;11.13;76.45;101295.32;116619;1189;22201;-79
2021/10/18 09:27:31;;;;;;;37.90;34.20;;;;;;;11.15;76.23;101294.48;116553;1192;22078;-77
2021/10/18 09:30:11;;;;;;;36.90;33.10;;;;;;;11.14;76.13;101293.64;116543;1190;23666;-77
2021/10/18 09:32:56;;;;;;;36.00;32.30;;;;;;;11.15;76.09;101292.52;116523;1192;21939;-78
2021/10/18 09:35:50;;;;;;;33.50;30.00;;;;;;;11.14;76.08;101290.13;116517;1192;23458;-78
2021/10/18 09:38:45;;;;;;;;;;;;;;;11.16;76.07;101290.98;116539;1192;21943;-79
2021/10/18 09:42:24;;;;;;;32.50;29.40;;;;;;;11.08;76.28;101290.30;116455;1190;21888;-78
2021/10/18 10:53:43;;;;;;;45.80;41.30;;;;;;;11.28;74.55;101316.13;116266;1196;21939;-79
2021/10/18 10:56:50;;;;;;;46.80;41.80;;;;;;;11.28;74.53;101313.80;116175;1193;21959;-79
2021/10/18 10:59:34;;;;;;;51.10;43.50;;;;;;;11.32;74.48;101319.45;116232;1193;22928;-78
2021/10/18 11:02:33;;;;;;;48.80;42.80;;;;;;;11.35;74.39;101318.79;115945;1201;21912;-77
2021/10/18 11:05:05;;;;;;;49.20;44.00;;;;;;;11.39;74.29;101320.39;115805;1200;21892;-78
2021/10/18 11:07:52;;;;;;;48.30;41.60;;;;;;;11.41;74.02;101321.06;116053;1200;23618;-78
2021/10/18 11:10:23;;;;;;;49.50;43.90;;;;;;;11.44;73.97;101317.77;115989;1200;21897;-78
2021/10/18 11:13:07;;;;;;;46.80;41.90;;;;;;;11.46;73.94;101317.52;116122;1198;22272;-77
2021/10/18 11:15:39;;;;;;;48.20;43.00;;;;;;;11.49;73.92;101315.83;116100;1196;23451;-77
2021/10/18 11:18:09;;;;;;;46.80;41.00;;;;;;;11.53;73.84;101306.80;116200;1197;21891;-78
2021/10/18 11:20:40;;;;;;;;;;;;;;;11.58;73.73;101308.27;116385;1193;22027;-78
2021/10/18 11:23:11;;;;;;;43.50;38.80;;;;;;;11.55;73.84;101310.07;116345;1192;22930;-78
2021/10/18 11:25:45;;;;;;;44.90;40.10;;;;;;;11.58;73.90;101309.98;116578;1190;22510;-79
2021/10/18 11:28:15;;;;;;;43.60;39.10;;;;;;;11.64;73.63;101307.51;116505;1192;21894;-78
2021/10/18 11:30:44;;;;;;;41.50;37.10;;;;;;;11.66;73.30;101304.45;116498;1192;21932;-78
2021/10/18 11:33:15;;;;;;;42.10;37.60;;;;;;;11.69;73.09;101303.41;116629;1193;22864;-78
2021/10/18 11:35:45;;;;;;;42.00;37.60;;;;;;;11.72;73.02;101304.70;116559;1190;22913;-78
2021/10/18 11:38:17;;;;;;;41.70;37.60;;;;;;;11.75;72.92;101305.29;116571;1192;21986;-78
2021/10/18 11:40:51;;;;;;;41.10;37.10;;;;;;;11.77;72.75;101307.42;116648;1189;23619;-77
2021/10/18 11:43:24;;;;;;;39.10;35.20;;;;;;;11.75;72.60;101306.15;116918;1189;21898;-77
2021/10/18 11:45:57;;;;;;;39.60;35.70;;;;;;;11.73;72.39;101306.34;116862;1187;23443;-77
2021/10/18 11:48:30;;;;;;;41.20;37.20;;;;;;;11.72;72.28;101303.98;116935;1187;21990;-78
2021/10/18 11:51:02;;;;;;;44.60;38.90;;;;;;;11.72;72.07;101299.12;116954;1189;23541;-78
2021/10/18 11:53:42;;;;;;;42.30;37.90;;;;;;;11.71;72.24;101294.17;116903;1189;23588;-77
2021/10/18 11:56:19;;;;;;;41.60;37.50;;;;;;;11.73;72.40;101294.73;117056;1189;21894;-77
2021/10/18 11:58:49;;;;;;;48.10;43.10;;;;;;;11.76;72.46;101291.94;116854;1189;21900;-77
2021/10/18 12:01:20;;;;;;;41.20;37.00;;;;;;;11.78;72.19;101291.95;116539;1192;21899;-77
2021/10/18 12:03:57;;;;;;;43.30;39.00;;;;;;;11.79;72.21;101294.31;116603;1193;22264;-78
2021/10/18 12:06:27;;;;;;;43.60;39.40;;;;;;;11.80;72.26;101290.48;116258;1195;21878;-77
2021/10/18 12:08:57;;;;;;;43.90;39.50;;;;;;;11.82;72.16;101289.28;116331;1195;21892;-78
2021/10/18 12:11:29;;;;;;;42.00;37.80;;;;;;;11.82;72.09;101289.48;116462;1193;21945;-78
2021/10/18 12:14:05;;;;;;;45.00;40.40;;;;;;;11.81;71.73;101290.25;116438;1195;22029;-78
2021/10/18 12:16:37;;;;;;;42.90;38.50;;;;;;;11.80;71.79;101288.77;116491;1195;21900;-77
2021/10/18 12:19:06;;;;;;;40.20;36.30;;;;;;;11.79;71.88;101291.10;116238;1194;21984;-77
2021/10/18 12:21:41;;;;;;;38.90;34.90;;;;;;;11.79;71.77;101291.52;116455;1190;22944;-77
2021/10/18 12:24:16;;;;;;;38.40;34.80;;;;;;;11.75;71.63;101299.80;116588;1191;22812;-78
2021/10/18 12:26:54;;;;;;;39.40;35.70;;;;;;;11.73;71.71;101294.95;116765;1188;21889;-77
2021/10/18 12:29:25;;;;;;;40.20;36.30;;;;;;;11.72;71.86;101297.83;116794;1187;22088;-78
2021/10/18 12:31:56;;;;;;;39.30;35.10;;;;;;;11.74;71.97;101298.64;116490;1187;21896;-77
2021/10/18 12:34:29;;;;;;;37.30;33.50;;;;;;;11.76;71.95;101295.31;116678;1196;24165;-79
2021/10/18 12:37:13;;;;;;;38.60;34.80;;;;;;;11.78;72.05;101284.07;116331;1193;21898;-76